Terminal Aerodrome Forecast
Issued by NWS Wilmington, NC

Home | Current Version | Previous Version | Text Only | Print | Product List | Glossary On
Versions: 1 2 3 4 5 6 7 8 9 10 11 12 13 14 15 16
000
FTUS42 KILM 011500 AAA
TAFLBT
TAF AMD
KLBT 011527Z 0115/0212 01008KT 3SM -RA BKN007 OVC012
      TEMPO 0117/0121 VRB05KT 5SM -RA SCT008 OVC012
     FM012300 35004KT 3SM BR BKN006
     FM020400 25004KT 3SM BR SCT004 BKN100
      TEMPO 0207/0211 1SM BR BKN003=

USA.gov is the U.S. government's official web portal to all federal, state and local government web resources and services.